SP9EPI-13 Weather Reports


Display with metric or nautical units.
time (UTC)temp
F
wind
direction
speed
MPH
gust
MPH
rain 1hr
in
rain 24hr
in
rain mn
in
humidity
%
barometer
mb
20260506195000 59 147 2.0 0.0 0.00 0.00 0.00 81 1002.7
20260506194000 61 60 0.0 0.0 0.00 0.00 0.00 71 1002.7
20260506193000 61 81 2.0 0.0 0.00 0.00 0.00 73 1002.7
20260506192000 61 129 0.0 0.0 0.00 0.00 0.00 72 1002.7
20260506191001 61 205 4.0 0.0 0.00 0.00 0.00 73 1002.7
20260506190000 61 219 4.0 0.0 0.00 0.00 0.00 76 1002.7
20260506185001 63 155 4.0 0.0 0.00 0.00 0.00 71 1002.3
20260506184000 63 8 0.0 0.0 0.00 0.00 0.00 75 1002.3
20260506183000 64 202 9.0 0.0 0.00 0.00 0.00 66 1002.3
20260506182000 66 171 2.0 0.0 0.00 0.00 0.00 60 1002.3
20260506181001 66 87 2.0 0.0 0.00 0.00 0.00 58 1002.3
20260506180001 68 79 2.0 0.0 0.00 0.00 0.00 55 1002.3
20260506175000 68 63 0.0 0.0 0.00 0.00 0.00 54 1002.3
20260506174000 68 2 0.0 0.0 0.00 0.00 0.00 52 1002.3
20260506173000 70 229 9.0 0.0 0.00 0.00 0.00 52 1002.3
20260506172000 70 191 4.0 0.0 0.00 0.00 0.00 51 1002.3
20260506171000 70 239 9.0 0.0 0.00 0.00 0.00 49 1002.3
20260506170000 70 223 7.0 0.0 0.00 0.00 0.00 48 1002.3
20260506165000 72 237 11.0 0.0 0.00 0.00 0.00 47 1002.3
20260506164000 73 228 11.0 0.0 0.00 0.00 0.00 46 1002.3
20260506163000 73 219 16.0 0.0 0.00 0.00 0.00 45 1002.0
20260506162012 73 256 18.0 0.0 0.00 0.00 0.00 44 1001.3
20260506161001 75 215 16.0 0.0 0.00 0.00 0.00 43 1001.3
20260506160000 75 224 13.0 0.0 0.00 0.00 0.00 40 1001.3
20260506155000 77 236 11.0 0.0 0.00 0.00 0.00 39 1002.0
20260506154000 77 233 16.0 0.0 0.00 0.00 0.00 37 1002.0
20260506153001 77 227 13.0 0.0 0.00 0.00 0.00 37 1002.0
20260506152001 81 270 11.0 0.0 0.00 0.00 0.00 34 1002.0
20260506151001 82 247 7.0 0.0 0.00 0.00 0.00 32 1002.0
20260506150000 82 90 4.0 0.0 0.00 0.00 0.00 34 1002.0
20260506145000 81 318 11.0 0.0 0.00 0.00 0.00 34 1002.0
20260506144001 82 241 9.0 0.0 0.00 0.00 0.00 32 1002.0
20260506143001 82 298 4.0 0.0 0.00 0.00 0.00 37 1002.0
20260506142001 82 329 7.0 0.0 0.00 0.00 0.00 33 1002.3
20260506141001 81 6 9.0 0.0 0.00 0.00 0.00 35 1002.3
20260506140000 82 226 9.0 0.0 0.00 0.00 0.00 33 1002.3
20260506135001 81 39 7.0 0.0 0.00 0.00 0.00 34 1002.3
20260506134001 81 180 16.0 0.0 0.00 0.00 0.00 35 1002.3
20260506133001 79 220 9.0 0.0 0.00 0.00 0.00 38 1002.3
20260506132001 79 270 11.0 0.0 0.00 0.00 0.00 37 1002.3
20260506131001 81 205 29.0 0.0 0.00 0.00 0.00 33 1002.3
20260506130000 82 242 9.0 0.0 0.00 0.00 0.00 34 1002.3
20260506125000 79 239 11.0 0.0 0.00 0.00 0.00 37 1002.7
20260506124001 79 241 4.0 0.0 0.00 0.00 0.00 37 1002.7
20260506123001 81 210 22.0 0.0 0.00 0.00 0.00 34 1002.7
20260506122000 79 225 18.0 0.0 0.00 0.00 0.00 36 1002.7
20260506121001 79 249 11.0 0.0 0.00 0.00 0.00 37 1002.7
20260506120000 81 251 7.0 0.0 0.00 0.00 0.00 37 1002.7
20260506115001 79 295 16.0 0.0 0.00 0.00 0.00 38 1003.0
20260506114001 77 230 22.0 0.0 0.00 0.00 0.00 38 1003.0
20260506113000 81 257 13.0 0.0 0.00 0.00 0.00 37 1003.0
20260506112001 79 207 20.0 0.0 0.00 0.00 0.00 36 1003.0
20260506111000 79 204 20.0 0.0 0.00 0.00 0.00 36 1003.0
20260506110001 79 262 25.0 0.0 0.00 0.00 0.00 37 1003.0
20260506105000 79 258 27.0 0.0 0.00 0.00 0.00 38 1003.0
20260506104001 79 284 29.0 0.0 0.00 0.00 0.00 39 1003.0
20260506103000 77 227 20.0 0.0 0.00 0.00 0.00 40 1003.0
20260506102001 79 243 13.0 0.0 0.00 0.00 0.00 41 1003.0
20260506101000 79 37 9.0 0.0 0.00 0.00 0.00 41 1003.0
20260506100000 77 248 11.0 0.0 0.00 0.00 0.00 46 1003.0
20260506095000 75 63 7.0 0.0 0.00 0.00 0.00 43 1003.0
20260506094000 75 279 16.0 0.0 0.00 0.00 0.00 43 1003.0
20260506093000 75 310 11.0 0.0 0.00 0.00 0.00 43 1003.0
20260506092000 75 282 16.0 0.0 0.00 0.00 0.00 45 1003.0
20260506091000 75 269 18.0 0.0 0.00 0.00 0.00 46 1003.0
20260506090000 75 234 18.0 0.0 0.00 0.00 0.00 45 1003.0
20260506085001 73 242 16.0 0.0 0.00 0.00 0.00 44 1003.0
20260506084001 75 236 22.0 0.0 0.00 0.00 0.00 46 1003.0
20260506083000 75 222 13.0 0.0 0.00 0.00 0.00 46 1003.0
20260506082000 75 359 22.0 0.0 0.00 0.00 0.00 45 1002.7
20260506081000 72 267 11.0 0.0 0.00 0.00 0.00 48 1002.7
20260506073001 73 224 7.0 0.0 0.00 0.00 0.00 44 1002.3
20260506072001 72 223 11.0 0.0 0.00 0.00 0.00 45 1002.3
20260506071000 72 174 20.0 0.0 0.00 0.00 0.00 45 1002.7
20260506062000 70 269 11.0 0.0 0.00 0.00 0.00 50 1002.7
20260506061001 70 191 13.0 0.0 0.00 0.00 0.00 47 1002.3
20260506051001 61 211 4.0 0.0 0.00 0.00 0.00 69 1002.3
20260506045000 61 151 4.0 0.0 0.00 0.00 0.00 63 1002.3
20260506044000 59 173 4.0 0.0 0.00 0.00 0.00 66 1002.3
20260506043001 59 252 4.0 0.0 0.00 0.00 0.00 70 1002.0
20260506042001 57 213 2.0 0.0 0.00 0.00 0.00 78 1002.0
20260506041001 55 158 0.0 0.0 0.00 0.00 0.00 78 1002.0
20260506040001 55 46 0.0 0.0 0.00 0.00 0.00 77 1002.3
20260506035001 55 58 0.0 0.0 0.00 0.00 0.00 78 1002.3
20260506034000 54 80 2.0 0.0 0.00 0.00 0.00 76 1002.3
20260506033000 52 65 0.0 0.0 0.00 0.00 0.00 78 1002.3
20260506032001 52 240 2.0 0.0 0.00 0.00 0.00 80 1002.3
20260506031001 52 47 0.0 0.0 0.00 0.00 0.00 78 1002.3
20260506030001 52 334 2.0 0.0 0.00 0.00 0.00 81 1002.3
20260506025001 54 90 0.0 0.0 0.00 0.00 0.00 89 1002.3
20260506024000 54 56 0.0 0.0 0.00 0.00 0.00 88 1002.3
20260506023001 54 60 2.0 0.0 0.00 0.00 0.00 91 1002.0
20260506022001 54 65 4.0 0.0 0.00 0.00 0.00 84 1002.3
20260506021000 54 17 0.0 0.0 0.00 0.00 0.00 77 1002.3
20260506020000 54 55 7.0 0.0 0.00 0.00 0.00 79 1002.3
20260506015001 54 39 0.0 0.0 0.00 0.00 0.00 75 1002.3
20260506014000 55 15 0.0 0.0 0.00 0.00 0.00 72 1002.3
20260506013001 55 258 0.0 0.0 0.00 0.00 0.00 79 1002.3
20260506012000 55 57 2.0 0.0 0.00 0.00 0.00 88 1002.7
20260506011000 54 258 0.0 0.0 0.00 0.00 0.00 87 1002.7
20260506010000 55 270 0.0 0.0 0.00 0.00 0.00 82 1002.7
20260506005000 55 120 2.0 0.0 0.00 0.00 0.00 83 1002.7
20260506004001 55 159 2.0 0.0 0.00 0.00 0.00 80 1002.7
20260506003001 57 27 0.0 0.0 0.00 0.00 0.00 71 1002.7
20260506002000 57 38 0.0 0.0 0.00 0.00 0.00 61 1002.7
20260506001001 57 72 0.0 0.0 0.00 0.00 0.00 61 1002.7
20260506000000 57 85 0.0 0.0 0.00 0.00 0.00 59 1003.0
20260505235001 57 345 2.0 0.0 0.00 0.00 0.00 64 1003.0
20260505234000 57 165 4.0 0.0 0.00 0.00 0.00 62 1003.0
20260505233001 57 43 0.0 0.0 0.00 0.00 0.00 57 1003.0
20260505232000 57 205 0.0 0.0 0.00 0.00 0.00 55 1003.0
20260505231000 59 87 0.0 0.0 0.00 0.00 0.00 52 1003.0
20260505230000 59 169 2.0 0.0 0.00 0.00 0.00 54 1003.0
20260505225001 59 193 2.0 0.0 0.00 0.00 0.00 58 1003.0
20260505224001 59 153 0.0 0.0 0.00 0.00 0.00 59 1003.0
20260505223000 59 190 2.0 0.0 0.00 0.00 0.00 54 1003.0
20260505222000 59 168 4.0 0.0 0.00 0.00 0.00 51 1003.0
20260505221000 59 160 2.0 0.0 0.00 0.00 0.00 53 1003.0
20260505220001 59 175 2.0 0.0 0.00 0.00 0.00 54 1003.0
20260505215000 61 185 7.0 0.0 0.00 0.00 0.00 53 1003.0
20260505214000 64 133 2.0 0.0 0.00 0.00 0.00 46 1003.0
20260505213000 64 175 9.0 0.0 0.00 0.00 0.00 41 1003.0
20260505212000 64 180 9.0 0.0 0.00 0.00 0.00 41 1003.0
20260505211000 64 189 7.0 0.0 0.00 0.00 0.00 43 1003.0
20260505210000 64 180 4.0 0.0 0.00 0.00 0.00 43 1003.0
20260505205000 66 168 7.0 0.0 0.00 0.00 0.00 42 1003.0
20260505203000 66 176 2.0 0.0 0.00 0.00 0.00 42 1003.0
20260505202001 66 177 4.0 0.0 0.00 0.00 0.00 39 1003.0
20260505201000 66 175 9.0 0.0 0.00 0.00 0.00 37 1003.0
20260505200000 68 162 7.0 0.0 0.00 0.00 0.00 37 1003.3